Time;durP1;ratioP1;P1;durP2;ratioP2;P2;SDS_P1;SDS_P2;PMS_P1;PMS_P2;Temp;Humidity;BMP_temperature;BMP_pressure;BME280_temperature;BME280_humidity;BME280_pressure;Samples;Min_cycle;Max_cycle;Signal;HPM_P1;HPM_P2
2023/05/19 00:00:18;;;;;;;5.75;2.92;;;;;;;8.52;100.00;101677.91;687896;28;1378;-57
2023/05/19 00:00:39;;;;;;;5.30;3.10;;;;;;;8.55;100.00;101683.19;685545;28;4911;-57
2023/05/19 00:00:59;;;;;;;6.73;3.00;;;;;;;8.56;100.00;101684.09;690399;28;1323;-57
2023/05/19 00:01:20;;;;;;;6.72;3.00;;;;;;;8.54;100.00;101678.81;690576;28;1243;-57
2023/05/19 00:01:42;;;;;;;7.50;3.05;;;;;;;8.52;100.00;101683.13;689501;28;1536;-57
2023/05/19 00:02:07;;;;;;;5.75;2.95;;;;;;;8.49;100.00;101680.47;691102;28;1351;-57
2023/05/19 00:02:32;;;;;;;6.47;3.40;;;;;;;8.50;100.00;101688.31;691450;28;1323;-57
2023/05/19 00:02:52;;;;;;;6.22;3.30;;;;;;;8.48;100.00;101682.19;688210;28;1449;-57
2023/05/19 00:03:13;;;;;;;6.33;3.17;;;;;;;8.49;100.00;101676.13;691022;28;1339;-57
2023/05/19 00:03:39;;;;;;;7.25;3.25;;;;;;;8.51;100.00;101683.97;691094;28;1390;-57
2023/05/19 00:04:04;;;;;;;5.40;3.05;;;;;;;8.50;100.00;101680.50;689971;28;4868;-57
2023/05/19 00:04:26;;;;;;;5.57;3.10;;;;;;;8.51;100.00;101682.25;690683;28;1363;-57
2023/05/19 00:04:47;;;;;;;6.55;3.00;;;;;;;8.51;100.00;101681.38;687522;28;2058;-58
2023/05/19 00:05:09;;;;;;;7.13;3.22;;;;;;;8.50;100.00;101683.09;687059;28;2071;-57
2023/05/19 00:05:29;;;;;;;6.55;3.20;;;;;;;8.47;100.00;101675.22;687679;28;1487;-57
2023/05/19 00:05:52;;;;;;;6.45;3.25;;;;;;;8.46;100.00;101685.59;685897;28;1470;-57
2023/05/19 00:06:13;;;;;;;5.68;3.22;;;;;;;8.43;100.00;101683.78;687486;28;1347;-57
2023/05/19 00:06:35;;;;;;;5.53;2.88;;;;;;;8.42;100.00;101687.25;687618;28;1454;-57
2023/05/19 00:06:58;;;;;;;6.88;3.05;;;;;;;8.42;100.00;101687.25;686311;28;4587;-57
2023/05/19 00:07:23;;;;;;;6.30;3.35;;;;;;;8.41;100.00;101688.09;690639;28;1271;-57
2023/05/19 00:07:45;;;;;;;5.43;2.92;;;;;;;8.40;100.00;101681.09;689397;28;1548;-57
2023/05/19 00:08:08;;;;;;;6.00;3.20;;;;;;;8.41;100.00;101685.47;689789;28;1291;-58
2023/05/19 00:08:32;;;;;;;6.35;3.10;;;;;;;8.42;100.00;101687.25;691222;28;1628;-58
2023/05/19 00:09:02;;;;;;;8.15;3.20;;;;;;;8.40;100.00;101688.91;689840;28;1536;-58
2023/05/19 00:09:22;;;;;;;6.35;3.10;;;;;;;8.41;100.00;101682.00;690547;28;1450;-64
2023/05/19 00:09:43;;;;;;;6.50;3.20;;;;;;;8.42;100.00;101686.34;689121;28;4464;-57
2023/05/19 00:10:05;;;;;;;6.25;3.08;;;;;;;8.39;100.00;101679.38;691213;28;1303;-57
2023/05/19 00:10:30;;;;;;;6.22;3.05;;;;;;;8.38;100.00;101682.81;687760;28;1403;-57
2023/05/19 00:10:50;;;;;;;5.07;2.72;;;;;;;8.39;100.00;101687.19;686260;28;1485;-57
2023/05/19 00:11:11;;;;;;;5.57;3.10;;;;;;;8.37;100.00;101683.66;686970;28;1252;-57
2023/05/19 00:11:32;;;;;;;5.65;3.38;;;;;;;8.36;100.00;101684.50;687586;28;1360;-57
2023/05/19 00:11:53;;;;;;;6.30;3.00;;;;;;;8.36;100.00;101687.09;686344;28;1680;-57
2023/05/19 00:12:14;;;;;;;6.33;3.10;;;;;;;8.37;100.00;101685.41;685739;28;1457;-57
2023/05/19 00:12:36;;;;;;;6.50;3.40;;;;;;;8.36;100.00;101692.31;687583;28;1188;-57
2023/05/19 00:12:57;;;;;;;7.68;3.22;;;;;;;8.36;100.00;101687.09;686280;28;6204;-56
2023/05/19 00:13:18;;;;;;;7.00;3.17;;;;;;;8.35;100.00;101685.38;687432;28;1335;-57
2023/05/19 00:13:39;;;;;;;6.38;3.20;;;;;;;8.31;100.00;101684.41;686245;28;1406;-57
2023/05/19 00:13:59;;;;;;;6.33;3.03;;;;;;;8.31;100.00;101683.53;688621;28;1339;-57
2023/05/19 00:14:20;;;;;;;5.20;2.90;;;;;;;8.34;100.00;101684.47;690224;28;1347;-57
2023/05/19 00:14:41;;;;;;;5.63;3.20;;;;;;;8.33;100.00;101687.03;688857;28;1628;-57
2023/05/19 00:15:02;;;;;;;6.40;3.10;;;;;;;8.33;100.00;101689.66;690320;28;1358;-58
2023/05/19 00:15:22;;;;;;;6.73;3.00;;;;;;;8.33;100.00;101689.66;689881;28;1469;-57
2023/05/19 00:15:43;;;;;;;6.25;3.10;;;;;;;8.33;100.00;101687.03;688662;28;4593;-57
2023/05/19 00:16:04;;;;;;;5.95;3.20;;;;;;;8.34;100.00;101686.22;690449;28;1354;-57
2023/05/19 00:16:26;;;;;;;5.72;3.00;;;;;;;8.33;100.00;101684.44;689516;28;3312;-57
2023/05/19 00:16:47;;;;;;;6.13;3.28;;;;;;;8.28;100.00;101684.34;688994;28;1848;-57
2023/05/19 00:17:08;;;;;;;5.80;3.08;;;;;;;8.25;100.00;101684.28;690592;28;1520;-57
2023/05/19 00:17:28;;;;;;;6.47;3.35;;;;;;;8.24;100.00;101686.84;690038;28;1378;-56
2023/05/19 00:17:49;;;;;;;6.30;3.00;;;;;;;8.22;100.00;101681.59;689276;28;1493;-56
2023/05/19 00:18:12;;;;;;;7.18;3.15;;;;;;;8.24;100.00;101679.94;690550;28;1624;-57
2023/05/19 00:18:33;;;;;;;6.10;3.30;;;;;;;8.25;100.00;101684.28;690128;28;1274;-58
2023/05/19 00:18:54;;;;;;;5.95;3.00;;;;;;;8.23;100.00;101685.97;685734;28;5311;-55
2023/05/19 00:19:15;;;;;;;6.32;3.03;;;;;;;8.23;100.00;101687.72;687485;28;1359;-58
2023/05/19 00:19:36;;;;;;;6.70;3.22;;;;;;;8.22;100.00;101685.94;685624;28;1315;-57
2023/05/19 00:19:57;;;;;;;5.03;3.20;;;;;;;8.22;100.00;101683.34;686559;28;1482;-58
2023/05/19 00:20:20;;;;;;;5.10;3.40;;;;;;;8.21;100.00;101682.47;687511;28;1200;-57
2023/05/19 00:20:41;;;;;;;6.55;3.40;;;;;;;8.18;100.00;101678.06;686821;28;1564;-56
2023/05/19 00:21:01;;;;;;;5.83;3.10;;;;;;;8.17;100.00;101686.72;690649;28;1489;-58
2023/05/19 00:21:22;;;;;;;7.03;3.22;;;;;;;8.17;100.00;101678.03;690661;28;1371;-57
2023/05/19 00:21:42;;;;;;;8.10;3.13;;;;;;;8.16;100.00;101684.97;687471;28;4365;-57
2023/05/19 00:22:03;;;;;;;6.55;3.03;;;;;;;8.17;100.00;101680.66;689792;28;1255;-58
2023/05/19 00:22:23;;;;;;;4.97;2.70;;;;;;;8.17;100.00;101680.66;687323;28;1469;-57
2023/05/19 00:22:43;;;;;;;5.82;2.90;;;;;;;8.18;100.00;101682.38;685945;28;1580;-57
2023/05/19 00:23:04;;;;;;;5.03;2.80;;;;;;;8.18;100.00;101685.88;687568;28;1491;-57
2023/05/19 00:23:26;;;;;;;5.72;2.88;;;;;;;8.18;100.00;101683.28;687649;28;1545;-57
2023/05/19 00:23:47;;;;;;;6.70;3.10;;;;;;;8.18;100.00;101677.16;683023;28;1482;-56
2023/05/19 00:24:07;;;;;;;5.78;3.00;;;;;;;8.17;100.00;101680.66;685405;28;1371;-58
2023/05/19 00:24:27;;;;;;;6.30;3.00;;;;;;;8.15;100.00;101680.59;687603;28;1502;-57
2023/05/19 00:24:48;;;;;;;6.43;2.90;;;;;;;8.14;100.00;101683.16;685242;28;4401;-56
2023/05/19 00:25:09;;;;;;;6.50;2.90;;;;;;;8.12;100.00;101680.53;684571;28;1993;-57
2023/05/19 00:25:29;;;;;;;5.95;2.97;;;;;;;8.11;100.00;101678.78;685293;28;1625;-57
2023/05/19 00:25:51;;;;;;;6.53;3.20;;;;;;;8.11;100.00;101678.78;685643;28;1604;-57
2023/05/19 00:26:11;;;;;;;7.00;3.22;;;;;;;8.11;100.00;101686.59;687594;28;1441;-57
2023/05/19 00:26:34;;;;;;;7.65;3.60;;;;;;;8.09;100.00;101680.47;681267;29;1387;-57
2023/05/19 00:26:58;;;;;;;5.75;3.00;;;;;;;8.09;100.00;101683.06;684611;28;1428;-57
2023/05/19 00:27:18;;;;;;;6.80;3.40;;;;;;;8.08;100.00;101676.09;684890;28;1378;-57
2023/05/19 00:27:39;;;;;;;6.67;3.00;;;;;;;8.07;100.00;101679.56;683185;28;4399;-57
2023/05/19 00:28:01;;;;;;;5.88;3.03;;;;;;;8.08;100.00;101685.66;683646;28;1281;-57
2023/05/19 00:28:22;;;;;;;5.50;2.90;;;;;;;8.09;100.00;101679.59;685832;28;1363;-57
2023/05/19 00:28:42;;;;;;;5.07;2.92;;;;;;;8.10;100.00;101679.63;685928;28;1558;-57
2023/05/19 00:29:03;;;;;;;5.63;2.80;;;;;;;8.08;100.00;101676.09;690009;28;1584;-57
2023/05/19 00:29:24;;;;;;;6.73;3.17;;;;;;;8.08;100.00;101683.91;690189;28;1354;-58
2023/05/19 00:29:45;;;;;;;5.70;3.10;;;;;;;8.09;100.00;101679.59;688873;28;1695;-57
2023/05/19 00:30:06;;;;;;;5.20;2.60;;;;;;;8.08;100.00;101685.66;689409;28;1351;-57
2023/05/19 00:30:28;;;;;;;6.88;2.88;;;;;;;8.07;100.00;101689.09;684525;28;1494;-56
2023/05/19 00:30:50;;;;;;;7.18;2.95;;;;;;;8.04;100.00;101684.69;684908;28;4468;-57
2023/05/19 00:31:10;;;;;;;4.68;2.80;;;;;;;8.03;100.00;101685.56;686850;28;2732;-57
2023/05/19 00:31:32;;;;;;;6.00;2.87;;;;;;;8.02;100.00;101683.78;687428;28;1324;-57
2023/05/19 00:31:53;;;;;;;6.55;3.00;;;;;;;8.00;100.00;101681.16;685496;28;1585;-57
2023/05/19 00:32:14;;;;;;;6.25;2.88;;;;;;;7.96;100.00;101687.13;686306;28;1256;-58
2023/05/19 00:32:34;;;;;;;5.47;3.10;;;;;;;7.96;100.00;101681.03;688267;28;1331;-57
2023/05/19 00:32:55;;;;;;;6.03;3.00;;;;;;;7.96;100.00;101691.44;687957;28;1552;-57
2023/05/19 00:33:15;;;;;;;5.40;2.90;;;;;;;7.95;100.00;101690.59;687930;28;1589;-57
2023/05/19 00:33:36;;;;;;;5.75;3.05;;;;;;;7.96;100.00;101683.63;687898;28;4552;-58
2023/05/19 00:33:56;;;;;;;9.33;3.40;;;;;;;7.96;100.00;101681.03;686732;28;1505;-57
2023/05/19 00:34:17;;;;;;;6.95;3.25;;;;;;;7.94;100.00;101681.00;689576;28;1385;-57
2023/05/19 00:34:37;;;;;;;7.47;3.30;;;;;;;7.94;100.00;101682.75;691140;28;1374;-57
2023/05/19 00:34:58;;;;;;;5.50;2.83;;;;;;;7.91;100.00;101693.97;690203;28;1453;-57
2023/05/19 00:35:19;;;;;;;5.82;2.80;;;;;;;7.92;100.00;101695.72;689997;28;1628;-57
2023/05/19 00:35:39;;;;;;;7.10;3.23;;;;;;;7.91;100.00;101687.88;688856;28;1529;-57
2023/05/19 00:36:04;;;;;;;6.13;2.97;;;;;;;7.87;100.00;101691.25;687694;28;1359;-57
2023/05/19 00:36:27;;;;;;;6.57;3.10;;;;;;;7.87;100.00;101693.88;686894;28;1335;-57
2023/05/19 00:36:47;;;;;;;5.05;2.83;;;;;;;7.86;100.00;101694.69;685749;28;4618;-55
2023/05/19 00:37:08;;;;;;;6.03;2.92;;;;;;;7.84;100.00;101692.94;687494;28;1509;-57
2023/05/19 00:37:29;;;;;;;6.60;2.93;;;;;;;7.82;100.00;101689.44;686964;28;1520;-57
2023/05/19 00:37:49;;;;;;;6.43;2.95;;;;;;;7.82;100.00;101689.44;687303;28;1675;-57
2023/05/19 00:38:10;;;;;;;6.17;2.87;;;;;;;7.82;100.00;101692.03;690071;28;1672;-57
2023/05/19 00:38:34;;;;;;;6.45;3.00;;;;;;;7.81;100.00;101686.78;689678;28;1437;-56
2023/05/19 00:38:54;;;;;;;6.68;3.08;;;;;;;7.80;100.00;101690.25;685485;28;4935;-57
2023/05/19 00:39:15;;;;;;;6.60;2.80;;;;;;;7.80;100.00;101688.50;686872;28;1247;-57
2023/05/19 00:39:35;;;;;;;6.83;3.13;;;;;;;7.80;100.00;101685.91;680938;29;1399;-57
2023/05/19 00:39:56;;;;;;;6.63;3.50;;;;;;;7.82;100.00;101683.31;681079;28;4541;-57
2023/05/19 00:40:17;;;;;;;5.82;3.15;;;;;;;7.82;100.00;101686.84;683954;28;1340;-57
2023/05/19 00:40:38;;;;;;;5.30;2.90;;;;;;;7.82;100.00;101691.13;687061;28;1164;-57
2023/05/19 00:41:00;;;;;;;5.18;2.80;;;;;;;7.79;100.00;101684.13;687693;28;1359;-57
2023/05/19 00:41:21;;;;;;;5.93;2.70;;;;;;;7.78;100.00;101685.00;683677;28;1333;-57
2023/05/19 00:41:41;;;;;;;6.68;3.10;;;;;;;7.76;100.00;101685.81;681925;28;1454;-57
2023/05/19 00:42:02;;;;;;;6.83;3.30;;;;;;;7.73;100.00;101690.94;683723;28;1169;-57
2023/05/19 00:42:22;;;;;;;7.25;3.20;;;;;;;7.73;100.00;101689.22;679655;28;1569;-57
2023/05/19 00:42:43;;;;;;;7.20;3.20;;;;;;;7.74;100.00;101690.06;677199;29;4323;-57
2023/05/19 00:43:04;;;;;;;7.30;3.13;;;;;;;7.74;100.00;101687.47;684909;28;1477;-57
2023/05/19 00:43:25;;;;;;;6.53;3.00;;;;;;;7.75;100.00;101689.25;682135;29;1566;-57
2023/05/19 00:43:45;;;;;;;5.72;2.92;;;;;;;7.75;100.00;101687.50;680135;28;1759;-57
2023/05/19 00:44:06;;;;;;;6.30;3.27;;;;;;;7.75;100.00;101689.25;682508;28;1190;-58
2023/05/19 00:44:26;;;;;;;6.97;3.25;;;;;;;7.74;100.00;101684.88;684715;28;1490;-58
2023/05/19 00:44:47;;;;;;;5.43;3.13;;;;;;;7.74;100.00;101685.78;683007;28;1517;-57
2023/05/19 00:45:07;;;;;;;6.57;3.13;;;;;;;7.75;100.00;101686.63;685094;28;1969;-57
2023/05/19 00:45:28;;;;;;;5.28;3.08;;;;;;;7.76;100.00;101689.28;688060;28;1723;-57
2023/05/19 00:45:49;;;;;;;4.40;2.80;;;;;;;7.76;100.00;101689.28;687479;28;4465;-57
2023/05/19 00:46:09;;;;;;;6.10;2.80;;;;;;;7.74;100.00;101680.56;689618;28;1599;-57
2023/05/19 00:46:30;;;;;;;7.50;3.05;;;;;;;7.72;100.00;101690.03;687261;28;1375;-57
2023/05/19 00:46:50;;;;;;;8.30;3.50;;;;;;;7.73;100.00;101689.22;685879;28;1469;-57
2023/05/19 00:47:11;;;;;;;6.53;2.95;;;;;;;7.73;100.00;101689.22;687835;28;1371;-57
2023/05/19 00:47:32;;;;;;;5.20;2.90;;;;;;;7.74;100.00;101682.25;687499;28;1404;-57
2023/05/19 00:47:52;;;;;;;5.95;3.08;;;;;;;7.74;100.00;101690.97;684939;28;1472;-57
2023/05/19 00:48:12;;;;;;;6.05;3.25;;;;;;;7.74;100.00;101685.78;687476;28;1450;-57
2023/05/19 00:48:33;;;;;;;6.97;3.50;;;;;;;7.75;100.00;101686.63;687544;28;1316;-57
2023/05/19 00:48:53;;;;;;;5.80;3.17;;;;;;;7.74;100.00;101693.56;684601;28;4732;-57
2023/05/19 00:49:13;;;;;;;7.78;3.20;;;;;;;7.74;100.00;101688.38;687496;28;1290;-59
2023/05/19 00:49:34;;;;;;;6.70;3.20;;;;;;;7.74;100.00;101690.97;689428;28;1351;-57
2023/05/19 00:49:55;;;;;;;5.90;2.95;;;;;;;7.73;100.00;101689.22;689240;28;1489;-56
2023/05/19 00:50:15;;;;;;;6.10;3.00;;;;;;;7.72;100.00;101691.78;689886;28;1545;-57
2023/05/19 00:50:36;;;;;;;6.70;3.30;;;;;;;7.73;100.00;101694.41;689835;28;1359;-57
2023/05/19 00:51:02;;;;;;;6.47;3.40;;;;;;;7.73;100.00;101690.94;688384;28;1481;-57
2023/05/19 00:51:25;;;;;;;7.38;3.30;;;;;;;7.69;100.00;101686.50;690411;28;1362;-57
2023/05/19 00:51:46;;;;;;;6.10;2.90;;;;;;;7.68;100.00;101690.81;688461;28;4395;-56
2023/05/19 00:52:06;;;;;;;7.05;3.08;;;;;;;7.69;100.00;101692.59;685343;28;1521;-57
2023/05/19 00:52:27;;;;;;;6.10;3.10;;;;;;;7.70;100.00;101688.25;687217;28;1326;-56
2023/05/19 00:52:47;;;;;;;6.00;2.90;;;;;;;7.69;100.00;101691.72;683440;28;1607;-56
2023/05/19 00:53:08;;;;;;;5.50;2.90;;;;;;;7.66;100.00;101682.09;684221;28;1347;-56
2023/05/19 00:53:30;;;;;;;5.50;2.97;;;;;;;7.66;100.00;101682.09;685090;28;1577;-56
2023/05/19 00:53:51;;;;;;;5.45;2.92;;;;;;;7.61;100.00;101678.50;683858;28;1425;-56
2023/05/19 00:54:11;;;;;;;6.70;3.10;;;;;;;7.61;100.00;101692.38;686894;28;1204;-57
2023/05/19 00:54:33;;;;;;;8.13;3.10;;;;;;;7.61;100.00;101678.50;687487;28;1282;-57
2023/05/19 00:54:54;;;;;;;6.18;2.95;;;;;;;7.60;100.00;101684.53;685490;28;4314;-57
2023/05/19 00:55:15;;;;;;;6.20;2.95;;;;;;;7.58;100.00;101678.44;687019;28;1280;-57
2023/05/19 00:55:37;;;;;;;5.00;2.90;;;;;;;7.58;100.00;101686.25;687363;28;1376;-57
2023/05/19 00:55:58;;;;;;;5.63;2.90;;;;;;;7.59;100.00;101682.81;686221;28;1516;-57
2023/05/19 00:56:20;;;;;;;6.40;3.10;;;;;;;7.60;100.00;101679.34;684568;28;1407;-58
2023/05/19 00:56:43;;;;;;;7.70;3.20;;;;;;;7.59;100.00;101678.47;683401;28;1513;-57
2023/05/19 00:57:03;;;;;;;6.05;3.10;;;;;;;7.58;100.00;101686.25;685660;28;1304;-58
2023/05/19 00:57:25;;;;;;;7.00;3.23;;;;;;;7.58;100.00;101679.31;687222;28;1500;-58
2023/05/19 00:57:48;;;;;;;8.13;3.33;;;;;;;7.58;100.00;101684.50;685924;28;4318;-58
2023/05/19 00:58:10;;;;;;;6.53;2.83;;;;;;;7.58;100.00;101681.91;685737;28;1312;-58
2023/05/19 00:58:32;;;;;;;6.18;2.83;;;;;;;7.58;100.00;101681.03;687047;28;1351;-57
2023/05/19 00:58:53;;;;;;;6.65;3.00;;;;;;;7.59;100.00;101677.59;684949;28;1622;-58
2023/05/19 00:59:14;;;;;;;6.80;3.22;;;;;;;7.57;100.00;101676.69;683815;28;2128;-57
2023/05/19 00:59:35;;;;;;;5.38;3.10;;;;;;;7.55;100.00;101680.97;684462;28;1348;-57
2023/05/19 00:59:55;;;;;;;6.43;3.25;;;;;;;7.53;100.00;101677.44;683583;28;1692;-58
2023/05/19 01:00:16;;;;;;;4.60;2.90;;;;;;;7.51;100.00;101682.63;687670;28;1530;-57
2023/05/19 01:00:38;;;;;;;5.27;2.90;;;;;;;7.52;100.00;101688.69;686148;28;4402;-57
2023/05/19 01:01:02;;;;;;;5.57;3.00;;;;;;;7.50;100.00;101689.56;686307;28;1883;-58
2023/05/19 01:01:25;;;;;;;6.63;3.22;;;;;;;7.50;100.00;101681.75;689870;28;1579;-57
2023/05/19 01:01:47;;;;;;;5.10;2.90;;;;;;;7.49;100.00;101685.19;688337;28;1540;-57
2023/05/19 01:02:08;;;;;;;5.47;2.97;;;;;;;7.48;100.00;101680.81;689115;28;1405;-57
2023/05/19 01:02:28;;;;;;;5.80;3.10;;;;;;;7.46;100.00;101682.50;690034;28;1382;-57
2023/05/19 01:02:50;;;;;;;5.40;3.00;;;;;;;7.43;100.00;101689.34;685837;28;1653;-57
2023/05/19 01:03:10;;;;;;;5.68;3.25;;;;;;;7.40;100.00;101684.94;687491;28;1537;-58
2023/05/19 01:03:34;;;;;;;7.17;3.33;;;;;;;7.39;100.00;101683.19;687056;28;1434;-57
2023/05/19 01:03:57;;;;;;;5.30;3.10;;;;;;;7.39;100.00;101688.38;685538;28;4669;-57
2023/05/19 01:04:20;;;;;;;6.47;3.28;;;;;;;7.39;100.00;101683.19;687458;28;1327;-57
2023/05/19 01:04:42;;;;;;;5.00;3.20;;;;;;;7.41;100.00;101691.06;685756;28;1603;-57
2023/05/19 01:05:03;;;;;;;4.82;3.15;;;;;;;7.36;100.00;101680.50;687891;28;1378;-57
2023/05/19 01:05:24;;;;;;;5.13;2.97;;;;;;;7.37;100.00;101681.41;689913;28;1938;-58
2023/05/19 01:05:44;;;;;;;5.47;3.10;;;;;;;7.39;100.00;101682.31;688674;28;1550;-57
2023/05/19 01:06:06;;;;;;;5.82;3.10;;;;;;;7.39;100.00;101684.91;691110;28;1378;-58
2023/05/19 01:06:26;;;;;;;6.47;3.38;;;;;;;7.36;100.00;101688.31;691240;28;1489;-57
2023/05/19 01:06:48;;;;;;;6.40;3.63;;;;;;;7.36;100.00;101682.25;688555;28;4602;-57
2023/05/19 01:07:11;;;;;;;6.05;3.15;;;;;;;7.37;100.00;101681.41;689010;28;1426;-58
2023/05/19 01:07:32;;;;;;;5.63;3.13;;;;;;;7.37;100.00;101681.41;687114;28;1367;-57
2023/05/19 01:07:55;;;;;;;6.47;3.20;;;;;;;7.37;100.00;101684.00;686739;28;1474;-57
2023/05/19 01:08:15;;;;;;;6.32;3.20;;;;;;;7.35;100.00;101677.88;687360;28;2035;-57
2023/05/19 01:08:37;;;;;;;6.47;3.53;;;;;;;7.32;100.00;101686.47;687539;28;1422;-57
2023/05/19 01:08:57;;;;;;;5.40;3.00;;;;;;;7.32;100.00;101683.88;683640;28;1467;-57
2023/05/19 01:09:18;;;;;;;6.10;3.10;;;;;;;7.33;100.00;101683.03;682188;29;1490;-57
2023/05/19 01:09:39;;;;;;;5.72;3.05;;;;;;;7.32;100.00;101689.97;681327;28;4676;-57
2023/05/19 01:10:03;;;;;;;5.55;3.10;;;;;;;7.32;100.00;101682.19;682587;28;1629;-58
2023/05/19 01:10:23;;;;;;;7.20;3.35;;;;;;;7.30;100.00;101688.19;684913;28;1433;-57
2023/05/19 01:10:43;;;;;;;6.17;3.23;;;;;;;7.28;100.00;101682.03;684539;28;1565;-57
2023/05/19 01:11:05;;;;;;;5.33;3.00;;;;;;;7.28;100.00;101684.63;685294;28;1391;-57
2023/05/19 01:11:26;;;;;;;5.85;2.95;;;;;;;7.26;100.00;101682.00;686088;28;1323;-57
2023/05/19 01:11:46;;;;;;;4.90;2.80;;;;;;;7.26;100.00;101681.13;684116;28;1485;-58
2023/05/19 01:12:07;;;;;;;4.57;3.00;;;;;;;7.27;100.00;101682.88;683988;28;1461;-57
2023/05/19 01:12:28;;;;;;;4.85;2.97;;;;;;;7.29;100.00;101676.00;684398;28;3233;-57
2023/05/19 01:12:48;;;;;;;5.93;3.10;;;;;;;7.29;100.00;101686.41;677773;28;4419;-57
2023/05/19 01:13:09;;;;;;;4.93;3.00;;;;;;;7.27;100.00;101677.66;678962;29;1519;-57
2023/05/19 01:13:30;;;;;;;7.00;3.50;;;;;;;7.23;100.00;101678.47;680527;29;1538;-57
2023/05/19 01:13:51;;;;;;;6.82;3.30;;;;;;;7.19;100.00;101685.28;679657;28;1546;-57
2023/05/19 01:14:11;;;;;;;6.23;3.10;;;;;;;7.18;100.00;101678.31;680554;29;1231;-57
2023/05/19 01:14:31;;;;;;;6.57;3.38;;;;;;;7.19;100.00;101681.84;681187;28;1317;-57
2023/05/19 01:14:53;;;;;;;5.53;3.20;;;;;;;7.20;100.00;101681.88;683851;28;1590;-57
2023/05/19 01:15:14;;;;;;;5.63;3.00;;;;;;;7.20;100.00;101678.38;687116;28;1358;-57
2023/05/19 01:16:05;;;;;;;5.97;3.13;;;;;;;7.27;100.00;101680.28;686392;28;4570;-56
2023/05/19 01:16:33;;;;;;;6.25;3.45;;;;;;;7.28;100.00;101682.03;681123;29;1431;-57
2023/05/19 01:17:13;;;;;;;6.43;3.28;;;;;;;7.28;100.00;101669.03;683444;28;1953;-57
2023/05/19 01:17:44;;;;;;;6.18;3.38;;;;;;;7.28;100.00;101675.13;685579;28;1343;-57
2023/05/19 01:18:12;;;;;;;6.20;3.20;;;;;;;7.27;100.00;101672.47;686324;28;1593;-57
2023/05/19 01:18:46;;;;;;;6.50;3.25;;;;;;;7.27;100.00;101672.47;688250;28;1450;-57
2023/05/19 01:19:09;;;;;;;6.45;3.13;;;;;;;7.25;100.00;101669.84;689339;28;4925;-60
2023/05/19 01:19:45;;;;;;;5.50;3.10;;;;;;;7.24;100.00;101673.31;689708;28;1588;-56
2023/05/19 01:20:15;;;;;;;6.93;3.33;;;;;;;7.22;100.00;101674.09;691186;28;1444;-57
2023/05/19 01:20:45;;;;;;;5.68;3.15;;;;;;;7.19;100.00;101680.09;690180;28;1073;-56
2023/05/19 01:21:21;;;;;;;5.70;2.90;;;;;;;7.20;100.00;101670.56;690756;28;1478;-57
2023/05/19 01:22:11;;;;;;;6.07;3.00;;;;;;;7.16;100.00;101673.09;688645;28;4679;-56
2023/05/19 01:22:47;;;;;;;6.55;3.03;;;;;;;7.16;100.00;101675.69;689466;28;1390;-57
2023/05/19 01:23:43;;;;;;;5.25;3.20;;;;;;;7.18;100.00;101669.66;689814;28;1339;-57
2023/05/19 01:24:41;;;;;;;6.35;3.10;;;;;;;7.15;100.00;101671.31;686965;28;1288;-56
2023/05/19 01:25:20;;;;;;;5.78;3.10;;;;;;;7.16;100.00;101670.50;687029;28;4784;-56
2023/05/19 01:26:10;;;;;;;5.20;3.13;;;;;;;7.13;100.00;101669.53;687042;28;1354;-56
2023/05/19 01:26:33;;;;;;;5.32;3.17;;;;;;;7.10;100.00;101675.56;687313;28;1497;-56
2023/05/19 01:27:12;;;;;;;5.85;3.10;;;;;;;7.10;100.00;101664.25;685898;28;1503;-57
2023/05/19 01:28:08;;;;;;;6.90;3.20;;;;;;;7.08;100.00;101672.00;683687;28;2580;-57
2023/05/19 01:28:53;;;;;;;5.63;3.00;;;;;;;7.06;100.00;101668.50;678849;28;4884;-57
2023/05/19 01:29:35;;;;;;;6.88;3.38;;;;;;;6.99;100.00;101671.75;683619;28;1430;-57
2023/05/19 01:30:17;;;;;;;7.57;3.53;;;;;;;6.98;100.00;101676.09;688463;28;1492;-56
2023/05/19 01:30:42;;;;;;;6.03;3.15;;;;;;;6.99;100.00;101666.56;687270;28;1434;-56
2023/05/19 01:31:06;;;;;;;5.85;3.22;;;;;;;6.97;100.00;101668.25;687094;28;1328;-57
2023/05/19 01:31:27;;;;;;;6.47;3.13;;;;;;;6.92;100.00;101669.84;687514;28;1394;-56
2023/05/19 01:31:49;;;;;;;6.68;3.30;;;;;;;6.88;100.00;101668.00;684826;28;1561;-56
2023/05/19 01:32:10;;;;;;;7.57;3.20;;;;;;;6.89;100.00;101668.03;686329;28;1438;-57
2023/05/19 01:32:32;;;;;;;7.22;3.00;;;;;;;6.92;100.00;101672.44;688848;28;1315;-56
2023/05/19 01:32:58;;;;;;;6.55;2.92;;;;;;;6.93;100.00;101662.09;686184;28;1474;-56
2023/05/19 01:33:21;;;;;;;7.38;3.22;;;;;;;6.93;100.00;101664.69;686753;28;1295;-57
2023/05/19 01:33:42;;;;;;;6.20;3.40;;;;;;;6.90;100.00;101659.41;684845;28;4434;-56
2023/05/19 01:34:05;;;;;;;6.57;3.40;;;;;;;6.91;100.00;101668.09;684632;28;1411;-56
2023/05/19 01:34:26;;;;;;;6.50;3.20;;;;;;;6.92;100.00;101664.66;680876;29;1467;-56
2023/05/19 01:34:49;;;;;;;5.18;2.97;;;;;;;6.92;100.00;101665.56;680323;28;1474;-56
2023/05/19 01:35:11;;;;;;;6.25;3.22;;;;;;;6.93;100.00;101663.81;681627;28;1507;-57
2023/05/19 01:35:34;;;;;;;5.97;3.17;;;;;;;6.91;100.00;101657.69;681929;29;1372;-56
2023/05/19 01:35:55;;;;;;;6.18;3.40;;;;;;;6.89;100.00;101656.78;682214;28;1542;-56
2023/05/19 01:36:20;;;;;;;6.20;3.28;;;;;;;6.90;100.00;101662.00;685962;28;1418;-57
2023/05/19 01:36:43;;;;;;;6.40;3.55;;;;;;;6.87;100.00;101663.63;686771;28;4607;-56
2023/05/19 01:37:04;;;;;;;7.65;3.22;;;;;;;6.87;100.00;101655.84;687321;28;1411;-57
2023/05/19 01:37:25;;;;;;;7.20;3.40;;;;;;;6.87;100.00;101655.84;686897;28;1864;-57
2023/05/19 01:37:46;;;;;;;7.30;3.40;;;;;;;6.88;100.00;101668.00;686083;28;1478;-55
2023/05/19 01:38:08;;;;;;;7.43;3.33;;;;;;;6.92;100.00;101664.66;687405;28;1402;-57
2023/05/19 01:38:32;;;;;;;5.78;3.10;;;;;;;6.89;100.00;101659.38;686835;28;1354;-56
2023/05/19 01:38:55;;;;;;;6.95;3.10;;;;;;;6.86;100.00;101656.72;684712;28;5280;-55
2023/05/19 01:39:18;;;;;;;5.00;3.20;;;;;;;6.84;100.00;101660.97;683345;28;1466;-57
2023/05/19 01:39:39;;;;;;;6.65;3.38;;;;;;;6.82;100.00;101659.19;684196;28;4387;-56
2023/05/19 01:39:59;;;;;;;6.57;3.20;;;;;;;6.81;100.00;101662.66;686290;28;1403;-57
2023/05/19 01:40:21;;;;;;;7.03;3.20;;;;;;;6.81;100.00;101660.06;687376;28;1253;-56
2023/05/19 01:40:43;;;;;;;5.57;3.20;;;;;;;6.81;100.00;101662.66;685573;28;1553;-57
2023/05/19 01:41:05;;;;;;;5.55;3.30;;;;;;;6.78;100.00;101661.69;685037;28;1563;-56
2023/05/19 01:41:31;;;;;;;6.50;3.42;;;;;;;6.76;100.00;101666.84;687116;28;1449;-57
2023/05/19 01:41:54;;;;;;;6.57;3.38;;;;;;;6.78;100.00;101656.50;679750;28;1622;-57
2023/05/19 01:42:16;;;;;;;6.60;3.53;;;;;;;6.79;100.00;101661.72;682687;28;1344;-56
2023/05/19 01:42:39;;;;;;;7.30;3.30;;;;;;;6.80;100.00;101663.50;680343;29;4398;-56
2023/05/19 01:43:00;;;;;;;6.93;3.53;;;;;;;6.82;100.00;101664.41;680317;28;1507;-57
2023/05/19 01:43:24;;;;;;;7.53;3.45;;;;;;;6.81;100.00;101673.06;683532;28;1539;-56
2023/05/19 01:43:47;;;;;;;6.22;3.38;;;;;;;6.82;100.00;101663.53;683016;28;1605;-56
2023/05/19 01:44:08;;;;;;;7.03;3.58;;;;;;;6.81;100.00;101667.88;687625;28;1486;-56
2023/05/19 01:44:30;;;;;;;6.13;3.20;;;;;;;6.76;100.00;101660.78;688734;28;1554;-57
2023/05/19 01:44:53;;;;;;;5.40;3.28;;;;;;;6.76;100.00;101663.38;685526;28;1465;-56
2023/05/19 01:45:14;;;;;;;6.18;3.17;;;;;;;6.73;100.00;101664.19;684922;28;1891;-56
2023/05/19 01:45:35;;;;;;;6.55;3.17;;;;;;;6.74;100.00;101657.25;689082;28;1478;-56
2023/05/19 01:45:57;;;;;;;6.05;3.10;;;;;;;6.76;100.00;101664.25;686061;28;4999;-56
2023/05/19 01:46:18;;;;;;;6.20;3.30;;;;;;;6.76;100.00;101661.66;687804;28;1378;-56
2023/05/19 01:46:40;;;;;;;6.22;3.17;;;;;;;6.73;100.00;101661.56;684049;28;1448;-56
2023/05/19 01:47:01;;;;;;;5.70;3.10;;;;;;;6.73;100.00;101664.19;685832;28;1545;-57
2023/05/19 01:47:22;;;;;;;5.72;3.22;;;;;;;6.74;100.00;101665.03;688076;28;1400;-56
2023/05/19 01:47:47;;;;;;;5.88;3.10;;;;;;;6.76;100.00;101668.56;683514;28;1581;-56
2023/05/19 01:48:08;;;;;;;7.75;3.60;;;;;;;6.76;100.00;101664.25;684182;28;1384;-56
2023/05/19 01:48:29;;;;;;;7.97;3.42;;;;;;;6.77;100.00;101670.31;684780;28;1347;-56
2023/05/19 01:48:52;;;;;;;6.95;3.20;;;;;;;6.77;100.00;101666.03;681619;28;4527;-57
2023/05/19 01:49:13;;;;;;;5.65;3.10;;;;;;;6.77;100.00;101666.03;681623;29;1237;-55